Time;durP1;ratioP1;P1;durP2;ratioP2;P2;SDS_P1;SDS_P2;PMS_P1;PMS_P2;Temp;Humidity;BMP_temperature;BMP_pressure;BME280_temperature;BME280_humidity;BME280_pressure;Samples;Min_cycle;Max_cycle;Signal;HPM_P1;HPM_P2
2022/02/21 00:00:59;;;;;;;11.97;4.20;;;;;;;;;;6214501;28;20580;-78
2022/02/21 00:04:19;;;;;;;2.57;1.33;;;;;;;;;;6205550;28;20229;-76
2022/02/21 00:07:41;;;;;;;4.20;1.53;;;;;;;;;;6220502;28;20334;-77
2022/02/21 00:11:02;;;;;;;1.80;0.93;;;;;;;;;;6220231;28;20224;-76
2022/02/21 00:14:23;;;;;;;1.20;0.83;;;;;;;;;;6225001;28;20225;-78
2022/02/21 00:17:44;;;;;;;3.07;0.77;;;;;;;;;;6210113;28;20532;-76
2022/02/21 00:21:05;;;;;;;2.00;0.80;;;;;;;;;;6215106;28;20229;-76
2022/02/21 00:24:27;;;;;;;2.53;1.00;;;;;;;;;;6208941;28;20610;-77
2022/02/21 00:27:47;;;;;;;3.10;1.47;;;;;;;;;;6221026;28;20236;-76
2022/02/21 00:31:08;;;;;;;3.50;1.40;;;;;;;;;;6210684;28;20802;-77
2022/02/21 00:34:28;;;;;;;3.53;1.87;;;;;;;;;;6225157;28;20531;-75
2022/02/21 00:37:49;;;;;;;4.07;1.17;;;;;;;;;;6217492;28;20614;-75
2022/02/21 00:41:11;;;;;;;6.57;1.60;;;;;;;;;;6213127;28;20229;-74
2022/02/21 00:44:32;;;;;;;3.80;1.27;;;;;;;;;;6202537;28;20320;-76
2022/02/21 00:47:53;;;;;;;1.93;1.30;;;;;;;;;;6223108;28;20250;-75
2022/02/21 00:51:14;;;;;;;3.47;1.40;;;;;;;;;;6201340;28;20233;-74
2022/02/21 00:54:34;;;;;;;2.03;0.87;;;;;;;;;;6206833;28;20234;-74
2022/02/21 00:57:56;;;;;;;1.27;1.00;;;;;;;;;;6222684;28;20236;-74
2022/02/21 01:01:17;;;;;;;1.00;0.60;;;;;;;;;;6225607;28;20324;-74
2022/02/21 01:04:38;;;;;;;1.80;1.00;;;;;;;;;;6201125;28;20237;-75
2022/02/21 01:07:58;;;;;;;3.03;0.70;;;;;;;;;;6224770;28;20245;-75
2022/02/21 01:11:20;;;;;;;1.60;0.60;;;;;;;;;;6211358;28;20232;-75
2022/02/21 01:14:42;;;;;;;1.80;0.60;;;;;;;;;;6209322;28;20240;-75
2022/02/21 01:18:03;;;;;;;2.00;1.37;;;;;;;;;;6216174;28;20232;-75
2022/02/21 01:21:24;;;;;;;2.07;0.60;;;;;;;;;;6199321;28;20257;-76
2022/02/21 01:24:44;;;;;;;0.50;0.50;;;;;;;;;;6220248;28;20240;-75
2022/02/21 01:28:05;;;;;;;0.77;0.73;;;;;;;;;;6219559;28;20233;-75
2022/02/21 01:31:27;;;;;;;1.10;0.90;;;;;;;;;;6221325;28;20229;-75
2022/02/21 01:34:47;;;;;;;2.53;1.43;;;;;;;;;;6217001;28;20244;-73
2022/02/21 01:38:08;;;;;;;0.87;0.77;;;;;;;;;;6213872;28;20237;-74
2022/02/21 01:41:29;;;;;;;1.03;0.90;;;;;;;;;;6215250;28;20658;-76
2022/02/21 01:44:50;;;;;;;2.10;0.60;;;;;;;;;;6222089;28;20327;-74
2022/02/21 01:48:12;;;;;;;2.47;0.80;;;;;;;;;;6221095;28;20554;-74
2022/02/21 01:51:33;;;;;;;0.50;0.50;;;;;;;;;;6214629;28;20244;-75
2022/02/21 01:54:53;;;;;;;0.80;0.80;;;;;;;;;;6213022;28;20237;-75
2022/02/21 01:58:14;;;;;;;2.03;0.87;;;;;;;;;;6218994;28;20213;-74
2022/02/21 02:01:35;;;;;;;1.83;0.83;;;;;;;;;;6225149;28;20788;-73
2022/02/21 02:04:57;;;;;;;1.87;0.60;;;;;;;;;;6218807;28;20233;-75
2022/02/21 02:08:18;;;;;;;1.33;0.60;;;;;;;;;;6200708;28;20323;-75
2022/02/21 02:11:38;;;;;;;2.10;0.80;;;;;;;;;;6217403;28;20938;-76
2022/02/21 02:14:59;;;;;;;1.87;0.83;;;;;;;;;;6213742;28;20569;-75
2022/02/21 02:18:20;;;;;;;3.13;1.40;;;;;;;;;;6222081;28;20224;-76
2022/02/21 02:21:43;;;;;;;3.60;1.50;;;;;;;;;;6225492;28;20232;-75
2022/02/21 02:25:05;;;;;;;4.10;1.17;;;;;;;;;;6210891;28;20237;-74
2022/02/21 02:28:26;;;;;;;5.53;1.57;;;;;;;;;;6218367;28;20811;-74
2022/02/21 02:31:46;;;;;;;7.20;2.10;;;;;;;;;;6204032;28;20230;-75
2022/02/21 02:35:07;;;;;;;4.20;2.37;;;;;;;;;;6216175;28;20252;-74
2022/02/21 02:38:28;;;;;;;11.60;3.97;;;;;;;;;;6213062;28;20221;-74
2022/02/21 02:41:51;;;;;;;12.37;2.53;;;;;;;;;;6196870;28;20315;-74
2022/02/21 02:45:12;;;;;;;9.20;2.87;;;;;;;;;;6222789;28;20594;-74
2022/02/21 02:48:32;;;;;;;8.53;2.80;;;;;;;;;;6217072;28;20540;-74
2022/02/21 02:52:00;;;;;;;7.40;2.80;;;;;;;;;;6198600;28;20236;-74
2022/02/21 02:55:21;;;;;;;10.87;2.93;;;;;;;;;;6210284;28;20233;-75
2022/02/21 02:58:43;;;;;;;8.27;3.50;;;;;;;;;;6222302;28;20252;-74
2022/02/21 03:02:04;;;;;;;16.00;6.17;;;;;;;;;;6218284;28;20233;-74
2022/02/21 03:05:25;;;;;;;14.63;3.50;;;;;;;;;;6213139;28;20312;-74
2022/02/21 03:08:45;;;;;;;9.20;2.67;;;;;;;;;;6215730;28;20233;-74
2022/02/21 03:12:06;;;;;;;15.43;4.83;;;;;;;;;;6214229;28;20241;-74
2022/02/21 03:15:28;;;;;;;10.43;3.07;;;;;;;;;;6218050;28;20245;-76
2022/02/21 03:18:49;;;;;;;15.63;5.17;;;;;;;;;;6217778;28;20245;-74
2022/02/21 03:22:09;;;;;;;15.73;4.63;;;;;;;;;;6214659;28;20237;-74
2022/02/21 03:25:30;;;;;;;18.77;5.37;;;;;;;;;;6215569;28;20591;-74
2022/02/21 03:28:50;;;;;;;15.47;4.63;;;;;;;;;;6195929;28;20221;-73
2022/02/21 03:32:12;;;;;;;9.57;3.03;;;;;;;;;;6204937;28;20225;-74
2022/02/21 03:35:32;;;;;;;9.47;3.67;;;;;;;;;;6216866;28;20234;-74
2022/02/21 03:38:53;;;;;;;14.63;3.77;;;;;;;;;;6207972;28;20286;-75
2022/02/21 03:42:13;;;;;;;13.53;4.57;;;;;;;;;;6206328;28;20709;-74
2022/02/21 03:45:34;;;;;;;16.77;5.13;;;;;;;;;;6225512;28;20233;-74
2022/02/21 03:48:56;;;;;;;14.60;5.23;;;;;;;;;;6212071;28;20229;-73
2022/02/21 03:52:16;;;;;;;17.07;5.07;;;;;;;;;;6210071;28;20233;-73
2022/02/21 03:55:37;;;;;;;17.53;4.80;;;;;;;;;;6213581;28;20619;-73
2022/02/21 03:58:57;;;;;;;15.97;5.93;;;;;;;;;;6220174;28;20609;-74
2022/02/21 04:02:18;;;;;;;17.33;4.43;;;;;;;;;;6207682;28;20599;-73
2022/02/21 04:05:40;;;;;;;18.40;6.50;;;;;;;;;;6205679;28;20316;-74
2022/02/21 04:09:00;;;;;;;17.37;6.57;;;;;;;;;;6215802;28;20233;-75
2022/02/21 04:12:21;;;;;;;15.63;6.00;;;;;;;;;;6215444;28;20224;-75
2022/02/21 04:15:42;;;;;;;22.03;4.97;;;;;;;;;;6220224;28;20236;-74
2022/02/21 04:19:03;;;;;;;22.03;6.87;;;;;;;;;;6209213;28;20240;-74
2022/02/21 04:22:25;;;;;;;21.67;5.00;;;;;;;;;;6205936;28;20225;-73
2022/02/21 04:25:46;;;;;;;16.63;5.17;;;;;;;;;;6210449;28;20237;-73
2022/02/21 04:29:06;;;;;;;19.70;5.20;;;;;;;;;;6215386;28;20561;-75
2022/02/21 04:32:27;;;;;;;16.13;5.87;;;;;;;;;;6211874;28;20237;-74
2022/02/21 04:35:47;;;;;;;16.00;4.10;;;;;;;;;;6214267;28;20230;-74
2022/02/21 04:39:09;;;;;;;18.03;6.67;;;;;;;;;;6214035;28;20233;-75
2022/02/21 04:42:30;;;;;;;12.00;3.80;;;;;;;;;;6213194;28;20229;-75
2022/02/21 04:45:55;;;;;;;12.03;3.83;;;;;;;;;;6212119;28;20232;-74
2022/02/21 04:49:15;;;;;;;10.43;3.00;;;;;;;;;;6223218;28;20233;-74
2022/02/21 04:52:36;;;;;;;11.63;3.87;;;;;;;;;;6213050;28;20230;-76
2022/02/21 04:55:58;;;;;;;7.20;2.57;;;;;;;;;;6209431;28;20252;-75
2022/02/21 04:59:19;;;;;;;7.50;2.70;;;;;;;;;;6214146;28;20225;-74
2022/02/21 05:02:39;;;;;;;9.10;3.13;;;;;;;;;;6234118;28;20256;-74
2022/02/21 05:05:59;;;;;;;9.23;2.93;;;;;;;;;;6192363;28;20599;-73
2022/02/21 05:09:20;;;;;;;14.27;4.13;;;;;;;;;;6215557;28;20245;-73
2022/02/21 05:12:42;;;;;;;11.30;3.57;;;;;;;;;;6214219;28;20241;-74
2022/02/21 05:16:02;;;;;;;15.73;4.40;;;;;;;;;;6225242;28;20229;-73
2022/02/21 05:19:23;;;;;;;15.43;5.40;;;;;;;;;;6219797;28;20252;-73
2022/02/21 05:22:44;;;;;;;17.13;5.57;;;;;;;;;;6217448;28;20233;-73
2022/02/21 05:26:04;;;;;;;19.33;5.13;;;;;;;;;;6216857;28;20221;-73
2022/02/21 05:29:26;;;;;;;10.57;4.93;;;;;;;;;;6220361;28;20237;-73
2022/02/21 05:32:46;;;;;;;18.87;5.90;;;;;;;;;;6233244;28;20240;-74
2022/02/21 05:36:07;;;;;;;13.17;3.97;;;;;;;;;;6210928;28;20228;-73
2022/02/21 05:39:27;;;;;;;16.47;4.07;;;;;;;;;;6217060;28;20571;-73
2022/02/21 05:42:48;;;;;;;19.93;6.60;;;;;;;;;;6214400;28;20232;-73
2022/02/21 05:46:10;;;;;;;11.13;4.23;;;;;;;;;;6226008;28;20228;-74
2022/02/21 05:49:30;;;;;;;9.43;2.87;;;;;;;;;;6218762;28;20626;-75
2022/02/21 05:52:51;;;;;;;12.50;4.90;;;;;;;;;;6213829;28;20236;-74
2022/02/21 05:56:11;;;;;;;13.47;3.10;;;;;;;;;;6215899;28;20229;-74
2022/02/21 05:59:33;;;;;;;14.93;4.97;;;;;;;;;;6220657;28;20234;-74
2022/02/21 06:02:54;;;;;;;18.27;5.23;;;;;;;;;;6218174;28;20504;-73
2022/02/21 06:06:15;;;;;;;12.30;3.77;;;;;;;;;;6211950;28;20229;-74
2022/02/21 06:09:36;;;;;;;19.97;5.00;;;;;;;;;;6215862;28;20300;-76
2022/02/21 06:12:56;;;;;;;12.53;3.20;;;;;;;;;;6217861;28;20233;-75
2022/02/21 06:16:17;;;;;;;14.70;4.30;;;;;;;;;;6212343;28;20761;-74
2022/02/21 06:19:39;;;;;;;10.00;3.60;;;;;;;;;;6212778;28;20257;-73
2022/02/21 06:23:00;;;;;;;11.63;4.20;;;;;;;;;;6193230;28;20603;-74
2022/02/21 06:26:20;;;;;;;7.53;3.50;;;;;;;;;;6219442;28;20221;-75
2022/02/21 06:29:41;;;;;;;10.17;3.33;;;;;;;;;;6218442;28;20236;-75
2022/02/21 06:33:02;;;;;;;5.80;3.47;;;;;;;;;;6214395;28;20933;-73
2022/02/21 06:36:23;;;;;;;14.63;3.90;;;;;;;;;;6206409;28;20225;-74
2022/02/21 06:39:44;;;;;;;15.43;4.63;;;;;;;;;;6216501;28;20233;-74
2022/02/21 06:43:05;;;;;;;14.70;4.90;;;;;;;;;;6218972;28;20512;-73
2022/02/21 06:46:25;;;;;;;21.20;5.13;;;;;;;;;;6212855;28;20229;-73
2022/02/21 06:49:45;;;;;;;12.57;3.17;;;;;;;;;;6217441;28;20233;-74
2022/02/21 06:53:07;;;;;;;8.27;3.40;;;;;;;;;;6215859;28;20233;-73
2022/02/21 06:56:28;;;;;;;9.00;3.90;;;;;;;;;;6213934;28;20236;-74
2022/02/21 06:59:49;;;;;;;16.03;3.77;;;;;;;;;;6218799;28;20328;-73
2022/02/21 07:03:09;;;;;;;15.00;5.63;;;;;;;;;;6221139;28;20308;-73
2022/02/21 07:06:32;;;;;;;8.53;3.90;;;;;;;;;;6214806;28;20245;-73
2022/02/21 07:09:54;;;;;;;8.83;2.90;;;;;;;;;;6214948;28;20726;-71
2022/02/21 07:13:14;;;;;;;12.77;4.20;;;;;;;;;;6216439;28;20504;-73
2022/02/21 07:16:35;;;;;;;10.50;5.47;;;;;;;;;;6216577;28;20621;-73
2022/02/21 07:19:55;;;;;;;13.63;3.80;;;;;;;;;;6216274;28;20241;-74
2022/02/21 07:23:16;;;;;;;13.57;4.17;;;;;;;;;;6212443;28;20823;-75
2022/02/21 07:26:38;;;;;;;16.67;4.73;;;;;;;;;;6214081;28;20308;-74
2022/02/21 07:29:58;;;;;;;8.97;3.30;;;;;;;;;;6214592;28;20237;-74
2022/02/21 07:33:19;;;;;;;9.93;4.90;;;;;;;;;;6233600;28;20228;-75
2022/02/21 07:36:40;;;;;;;9.07;3.43;;;;;;;;;;6196668;28;20261;-75
2022/02/21 07:40:00;;;;;;;10.90;4.57;;;;;;;;;;6219359;28;20599;-74
2022/02/21 07:43:22;;;;;;;15.40;3.77;;;;;;;;;;6216205;28;20248;-74
2022/02/21 07:46:43;;;;;;;13.57;3.27;;;;;;;;;;6212477;28;20316;-74
2022/02/21 07:50:03;;;;;;;8.40;3.30;;;;;;;;;;6222310;28;20232;-74
2022/02/21 07:53:23;;;;;;;8.63;4.30;;;;;;;;;;6210720;28;20221;-73
2022/02/21 07:56:44;;;;;;;9.20;3.90;;;;;;;;;;6200572;28;20630;-73
2022/02/21 08:00:07;;;;;;;9.10;3.53;;;;;;;;;;6211728;28;20224;-73
2022/02/21 08:03:35;;;;;;;5.73;3.03;;;;;;;;;;6216229;28;20971;-74
2022/02/21 08:06:55;;;;;;;10.27;3.97;;;;;;;;;;6219232;28;20232;-74
2022/02/21 08:10:15;;;;;;;18.93;4.77;;;;;;;;;;6215415;28;20229;-74
2022/02/21 08:13:36;;;;;;;11.40;3.43;;;;;;;;;;6215321;28;20264;-76
2022/02/21 08:16:58;;;;;;;13.40;3.63;;;;;;;;;;6215473;28;20233;-75
2022/02/21 08:20:20;;;;;;;11.10;4.43;;;;;;;;;;6214271;28;20237;-76
2022/02/21 08:23:40;;;;;;;18.83;5.67;;;;;;;;;;6221072;28;20544;-74
2022/02/21 08:27:01;;;;;;;14.27;4.23;;;;;;;;;;6214298;28;20233;-77
2022/02/21 08:30:23;;;;;;;8.73;4.33;;;;;;;;;;6216602;28;20291;-76
2022/02/21 08:33:45;;;;;;;7.70;2.93;;;;;;;;;;6227449;28;20746;-76
2022/02/21 08:37:06;;;;;;;14.67;5.37;;;;;;;;;;6218512;28;20224;-74
2022/02/21 08:40:27;;;;;;;7.43;2.90;;;;;;;;;;6219650;28;20241;-75
2022/02/21 08:43:47;;;;;;;7.67;2.77;;;;;;;;;;6220958;28;20249;-76
2022/02/21 08:47:08;;;;;;;9.33;3.60;;;;;;;;;;6237167;28;20598;-75
2022/02/21 08:50:30;;;;;;;8.00;2.93;;;;;;;;;;6239433;28;20228;-76
2022/02/21 08:53:51;;;;;;;12.17;4.13;;;;;;;;;;6216096;28;20304;-76
2022/02/21 08:57:12;;;;;;;10.17;3.10;;;;;;;;;;6219069;28;20233;-76
2022/02/21 09:00:32;;;;;;;9.00;3.90;;;;;;;;;;6218106;28;20229;-76
2022/02/21 09:03:53;;;;;;;6.73;2.70;;;;;;;;;;6191452;28;20340;-76
2022/02/21 09:07:15;;;;;;;9.77;3.13;;;;;;;;;;6221947;28;20241;-76
2022/02/21 09:10:35;;;;;;;8.47;3.03;;;;;;;;;;6216831;28;20229;-76
2022/02/21 09:13:56;;;;;;;9.47;3.37;;;;;;;;;;6215204;28;20339;-75
2022/02/21 09:17:17;;;;;;;9.07;3.10;;;;;;;;;;6214008;28;20233;-74
2022/02/21 09:20:38;;;;;;;12.77;4.57;;;;;;;;;;6218858;28;20241;-75
2022/02/21 09:24:00;;;;;;;12.93;3.77;;;;;;;;;;6207065;28;20244;-76
2022/02/21 09:27:20;;;;;;;9.23;4.43;;;;;;;;;;6212761;28;20240;-75
2022/02/21 09:30:40;;;;;;;21.23;5.10;;;;;;;;;;6206095;28;20244;-75
2022/02/21 09:34:01;;;;;;;16.27;4.30;;;;;;;;;;6221838;28;20260;-74
2022/02/21 09:37:21;;;;;;;11.40;3.27;;;;;;;;;;6197569;28;20233;-75
2022/02/21 09:40:46;;;;;;;10.97;4.37;;;;;;;;;;6220950;28;20625;-74
2022/02/21 09:44:09;;;;;;;8.10;3.73;;;;;;;;;;6214550;28;20222;-74
2022/02/21 09:47:31;;;;;;;10.60;3.03;;;;;;;;;;6222450;28;20610;-75
2022/02/21 09:50:52;;;;;;;10.93;4.30;;;;;;;;;;6215390;28;20257;-75
2022/02/21 09:54:13;;;;;;;11.40;3.20;;;;;;;;;;6213377;28;20338;-76
2022/02/21 09:57:35;;;;;;;15.23;6.23;;;;;;;;;;6215725;28;20241;-76
2022/02/21 10:00:56;;;;;;;11.47;4.63;;;;;;;;;;6218639;28;20764;-75
2022/02/21 10:04:22;;;;;;;8.20;3.43;;;;;;;;;;6218337;28;20249;-76
2022/02/21 10:07:43;;;;;;;11.23;4.00;;;;;;;;;;6205112;28;20242;-75
2022/02/21 10:11:04;;;;;;;11.13;5.30;;;;;;;;;;6217601;28;20257;-75
2022/02/21 10:14:28;;;;;;;11.03;3.50;;;;;;;;;;6215237;28;20400;-74
2022/02/21 10:17:49;;;;;;;11.00;3.50;;;;;;;;;;6216747;28;20263;-74
2022/02/21 10:21:10;;;;;;;12.63;3.87;;;;;;;;;;6200977;28;20224;-75
2022/02/21 10:24:32;;;;;;;7.63;3.27;;;;;;;;;;6216998;28;20225;-76
2022/02/21 10:27:53;;;;;;;15.50;4.87;;;;;;;;;;6218688;28;20232;-74
2022/02/21 10:31:16;;;;;;;14.30;5.00;;;;;;;;;;6220573;28;20229;-75
2022/02/21 10:34:37;;;;;;;15.40;5.10;;;;;;;;;;6215961;28;20229;-74
2022/02/21 10:38:01;;;;;;;10.73;3.90;;;;;;;;;;6213729;28;20602;-75
2022/02/21 10:41:22;;;;;;;12.57;4.73;;;;;;;;;;6220421;28;20233;-74
2022/02/21 10:44:43;;;;;;;9.00;3.87;;;;;;;;;;6218685;28;20248;-74
2022/02/21 10:48:05;;;;;;;13.07;4.83;;;;;;;;;;6228083;28;20232;-74
2022/02/21 10:51:32;;;;;;;12.77;3.17;;;;;;;;;;6220487;28;20229;-74
2022/02/21 10:54:54;;;;;;;11.53;4.53;;;;;;;;;;6216394;28;20829;-75
2022/02/21 10:58:18;;;;;;;14.60;5.27;;;;;;;;;;6213403;28;20233;-74
2022/02/21 11:01:39;;;;;;;13.77;4.93;;;;;;;;;;6219230;28;20257;-74
2022/02/21 11:05:01;;;;;;;11.67;5.37;;;;;;;;;;6214830;28;20229;-74
2022/02/21 11:08:22;;;;;;;10.63;4.10;;;;;;;;;;6219495;28;20240;-74
2022/02/21 11:11:45;;;;;;;13.20;4.77;;;;;;;;;;6224021;28;21130;-74
2022/02/21 11:15:07;;;;;;;7.07;3.77;;;;;;;;;;6224716;28;20264;-74
2022/02/21 11:18:28;;;;;;;9.87;3.70;;;;;;;;;;6218221;28;20237;-73
2022/02/21 11:21:50;;;;;;;8.87;2.97;;;;;;;;;;6207724;28;20236;-73
2022/02/21 11:25:19;;;;;;;6.83;2.63;;;;;;;;;;6211984;28;20229;-73
2022/02/21 11:28:43;;;;;;;5.37;2.43;;;;;;;;;;6212401;28;20224;-74
2022/02/21 11:32:03;;;;;;;8.23;3.40;;;;;;;;;;6231427;28;20233;-74
2022/02/21 11:35:24;;;;;;;11.37;2.90;;;;;;;;;;6216470;28;20233;-74
2022/02/21 11:38:46;;;;;;;12.53;4.67;;;;;;;;;;6214688;28;20913;-73
2022/02/21 11:42:08;;;;;;;9.13;3.33;;;;;;;;;;6201981;28;20234;-74
2022/02/21 11:45:29;;;;;;;6.10;2.03;;;;;;;;;;6231681;28;20225;-73
2022/02/21 11:48:54;;;;;;;9.43;3.20;;;;;;;;;;6232476;28;20327;-74
2022/02/21 11:52:27;;;;;;;10.57;3.20;;;;;;;;;;6211631;28;20232;-74
2022/02/21 11:55:51;;;;;;;7.53;3.33;;;;;;;;;;6214143;28;20233;-74
2022/02/21 11:59:27;;;;;;;4.97;2.03;;;;;;;;;;6219561;28;20229;-74
2022/02/21 12:03:03;;;;;;;7.93;3.70;;;;;;;;;;6216453;28;20229;-75
2022/02/21 12:06:27;;;;;;;10.40;3.30;;;;;;;;;;6221494;28;20244;-74
2022/02/21 12:10:07;;;;;;;7.07;3.60;;;;;;;;;;6211885;28;20224;-75
2022/02/21 12:13:29;;;;;;;10.37;2.40;;;;;;;;;;6219937;28;20229;-75
2022/02/21 12:17:08;;;;;;;7.07;2.13;;;;;;;;;;6225693;28;20224;-75
2022/02/21 12:20:38;;;;;;;4.73;2.57;;;;;;;;;;6209378;28;20240;-75
2022/02/21 12:24:06;;;;;;;6.00;2.63;;;;;;;;;;6189062;28;20226;-76
2022/02/21 12:27:26;;;;;;;6.20;3.00;;;;;;;;;;6215609;28;20579;-75
2022/02/21 12:30:49;;;;;;;3.53;2.17;;;;;;;;;;6218998;28;20264;-75
2022/02/21 12:34:11;;;;;;;12.80;2.80;;;;;;;;;;6235957;28;20229;-74
2022/02/21 12:37:35;;;;;;;6.53;2.20;;;;;;;;;;6217608;28;20221;-75
2022/02/21 12:41:02;;;;;;;6.40;2.90;;;;;;;;;;6230341;28;20328;-75
2022/02/21 12:44:22;;;;;;;7.47;2.63;;;;;;;;;;6214400;28;20559;-75
2022/02/21 12:47:47;;;;;;;4.33;3.03;;;;;;;;;;6238170;28;20236;-74
2022/02/21 12:51:08;;;;;;;7.23;2.03;;;;;;;;;;6215098;28;20237;-75
2022/02/21 12:54:28;;;;;;;4.17;1.73;;;;;;;;;;6218501;28;20225;-75
2022/02/21 12:57:48;;;;;;;3.83;1.60;;;;;;;;;;6217898;28;20229;-75
2022/02/21 13:01:12;;;;;;;2.77;1.70;;;;;;;;;;6217101;28;20245;-75
2022/02/21 13:04:36;;;;;;;3.67;1.87;;;;;;;;;;6214962;28;20241;-74
2022/02/21 13:08:12;;;;;;;5.13;2.83;;;;;;;;;;6306696;27;20781;-75
2022/02/21 13:11:33;;;;;;;3.10;2.00;;;;;;;;;;6307877;27;20250;-74
2022/02/21 13:14:57;;;;;;;3.43;1.93;;;;;;;;;;6307447;27;20242;-75
2022/02/21 13:18:18;;;;;;;3.27;1.53;;;;;;;;;;6302273;27;20562;-75
2022/02/21 13:21:40;;;;;;;2.43;1.10;;;;;;;;;;6306150;27;20222;-73
2022/02/21 13:25:03;;;;;;;2.87;1.07;;;;;;;;;;6309497;27;20230;-75
2022/02/21 13:28:23;;;;;;;4.17;2.80;;;;;;;;;;6312084;27;20227;-75
2022/02/21 13:31:44;;;;;;;5.27;1.77;;;;;;;;;;6306760;28;20308;-75
2022/02/21 13:35:09;;;;;;;2.67;1.53;;;;;;;;;;6306190;27;20222;-76
2022/02/21 13:38:30;;;;;;;4.27;1.40;;;;;;;;;;6309018;27;20226;-74
2022/02/21 13:41:52;;;;;;;6.97;2.63;;;;;;;;;;6301720;27;20468;-78
2022/02/21 13:45:20;;;;;;;3.77;2.73;;;;;;;;;;6296131;27;20230;-75
2022/02/21 13:48:44;;;;;;;4.40;1.80;;;;;;;;;;6325463;27;20222;-74
2022/02/21 13:52:05;;;;;;;2.63;1.27;;;;;;;;;;6309389;27;20226;-75
2022/02/21 13:55:27;;;;;;;4.33;2.00;;;;;;;;;;6309027;27;20270;-75
2022/02/21 13:58:58;;;;;;;2.37;1.90;;;;;;;;;;6309249;28;20238;-75
2022/02/21 14:02:24;;;;;;;3.00;1.33;;;;;;;;;;6311344;27;20226;-74
2022/02/21 14:05:58;;;;;;;2.13;1.93;;;;;;;;;;6330530;27;20234;-75
2022/02/21 14:09:20;;;;;;;1.90;1.80;;;;;;;;;;6309620;27;20235;-75
2022/02/21 14:12:41;;;;;;;3.13;2.10;;;;;;;;;;6305425;27;20622;-75
2022/02/21 14:16:02;;;;;;;2.40;2.20;;;;;;;;;;6311824;27;20237;-74
2022/02/21 14:19:23;;;;;;;2.97;2.43;;;;;;;;;;6297019;28;20652;-74
2022/02/21 14:22:44;;;;;;;4.43;2.60;;;;;;;;;;6295903;27;20226;-74
2022/02/21 14:26:04;;;;;;;3.27;2.67;;;;;;;;;;6291296;27;20223;-75
2022/02/21 14:29:25;;;;;;;2.67;2.47;;;;;;;;;;6293475;28;20238;-74
2022/02/21 14:32:48;;;;;;;1.97;1.73;;;;;;;;;;6293279;28;20247;-75
2022/02/21 14:36:08;;;;;;;2.73;2.30;;;;;;;;;;6297418;27;20518;-75
2022/02/21 14:39:29;;;;;;;2.47;2.23;;;;;;;;;;6287925;28;20528;-74
2022/02/21 14:42:49;;;;;;;2.27;1.80;;;;;;;;;;6293858;28;20234;-76
2022/02/21 14:46:10;;;;;;;2.07;1.70;;;;;;;;;;6294542;28;20782;-74
2022/02/21 14:49:32;;;;;;;2.07;1.93;;;;;;;;;;6285837;28;20231;-74
2022/02/21 14:52:52;;;;;;;2.30;2.10;;;;;;;;;;6290137;28;20334;-74
2022/02/21 14:56:13;;;;;;;2.20;2.00;;;;;;;;;;6291097;28;20216;-75
2022/02/21 14:59:33;;;;;;;2.40;2.20;;;;;;;;;;6291036;28;20235;-75
2022/02/21 15:02:54;;;;;;;2.27;2.07;;;;;;;;;;6295852;27;20238;-75
2022/02/21 15:06:19;;;;;;;2.77;2.57;;;;;;;;;;6308596;27;20231;-75
2022/02/21 15:09:40;;;;;;;2.10;2.00;;;;;;;;;;6290178;28;20686;-75
2022/02/21 15:13:00;;;;;;;2.87;2.67;;;;;;;;;;6286367;28;20539;-73
2022/02/21 15:16:21;;;;;;;3.17;2.97;;;;;;;;;;6285614;28;20601;-75
2022/02/21 15:19:41;;;;;;;3.90;3.50;;;;;;;;;;6295701;28;20227;-74
2022/02/21 15:23:06;;;;;;;4.83;4.17;;;;;;;;;;6280256;28;20223;-75
2022/02/21 15:26:26;;;;;;;3.73;3.43;;;;;;;;;;6287499;28;20258;-74
2022/02/21 15:29:47;;;;;;;3.90;3.20;;;;;;;;;;6289140;28;21723;-74
2022/02/21 15:33:07;;;;;;;3.30;3.10;;;;;;;;;;6287365;28;20223;-74
2022/02/21 15:36:28;;;;;;;4.70;4.30;;;;;;;;;;6312534;27;20252;-74
2022/02/21 15:39:49;;;;;;;4.37;3.97;;;;;;;;;;6293101;28;20223;-74
2022/02/21 15:43:10;;;;;;;4.00;3.70;;;;;;;;;;6287867;28;20317;-74
2022/02/21 15:46:30;;;;;;;3.33;3.13;;;;;;;;;;6298652;27;20235;-74
2022/02/21 15:49:51;;;;;;;4.73;3.97;;;;;;;;;;6291918;28;20227;-76
2022/02/21 15:53:12;;;;;;;5.43;3.80;;;;;;;;;;6286591;28;20227;-75
2022/02/21 15:56:34;;;;;;;3.77;3.47;;;;;;;;;;6295680;28;20234;-74
2022/02/21 15:59:54;;;;;;;2.13;2.03;;;;;;;;;;6285781;28;20235;-75
2022/02/21 16:03:15;;;;;;;2.10;2.00;;;;;;;;;;6284178;28;20219;-73
2022/02/21 16:06:35;;;;;;;2.83;2.50;;;;;;;;;;6308872;27;20219;-75
2022/02/21 16:09:56;;;;;;;3.17;2.90;;;;;;;;;;6287754;28;20317;-75
2022/02/21 16:13:18;;;;;;;4.43;3.17;;;;;;;;;;6294490;28;20223;-75
2022/02/21 16:16:39;;;;;;;2.57;2.37;;;;;;;;;;6294531;28;20219;-74
2022/02/21 16:20:00;;;;;;;5.73;4.00;;;;;;;;;;6290718;28;20227;-75
2022/02/21 16:23:21;;;;;;;3.37;2.83;;;;;;;;;;6300389;27;20248;-72
2022/02/21 16:26:41;;;;;;;2.33;1.90;;;;;;;;;;6288560;28;20227;-74
2022/02/21 16:30:06;;;;;;;3.67;3.33;;;;;;;;;;6273375;28;20231;-74
2022/02/21 16:33:27;;;;;;;3.63;3.20;;;;;;;;;;6308684;28;20613;-73
2022/02/21 16:36:47;;;;;;;3.63;1.97;;;;;;;;;;6287439;28;20239;-73
2022/02/21 16:40:10;;;;;;;3.53;2.40;;;;;;;;;;6283436;28;20228;-75
2022/02/21 16:43:30;;;;;;;2.53;1.60;;;;;;;;;;6290624;27;20300;-74
2022/02/21 16:46:52;;;;;;;4.03;3.57;;;;;;;;;;6299692;27;20243;-73
2022/02/21 16:50:13;;;;;;;6.23;4.57;;;;;;;;;;6288456;28;20223;-74
2022/02/21 16:53:33;;;;;;;3.43;2.30;;;;;;;;;;6303835;27;20238;-74
2022/02/21 16:56:54;;;;;;;8.83;6.07;;;;;;;;;;6294970;27;20227;-74
2022/02/21 17:00:19;;;;;;;5.47;3.23;;;;;;;;;;6293419;28;20218;-75
2022/02/21 17:03:41;;;;;;;6.27;2.60;;;;;;;;;;6285277;27;20227;-74
2022/02/21 17:07:01;;;;;;;5.17;4.43;;;;;;;;;;6289611;27;20231;-73
2022/02/21 17:10:21;;;;;;;7.97;3.90;;;;;;;;;;6292362;28;20719;-74
2022/02/21 17:13:42;;;;;;;10.07;7.00;;;;;;;;;;6289260;28;20231;-73
2022/02/21 17:17:02;;;;;;;3.40;1.53;;;;;;;;;;6281096;27;20234;-74
2022/02/21 17:20:27;;;;;;;6.50;2.00;;;;;;;;;;6287442;28;20502;-74
2022/02/21 17:23:47;;;;;;;3.27;2.33;;;;;;;;;;6285972;28;20227;-74
2022/02/21 17:27:08;;;;;;;5.17;2.70;;;;;;;;;;6288234;28;20227;-74
2022/02/21 17:30:29;;;;;;;4.90;2.00;;;;;;;;;;6290619;28;20239;-74
2022/02/21 17:33:49;;;;;;;3.10;1.83;;;;;;;;;;6300174;27;20259;-74
2022/02/21 17:37:11;;;;;;;4.40;1.80;;;;;;;;;;6284130;28;20227;-74
2022/02/21 17:40:33;;;;;;;5.10;2.73;;;;;;;;;;6290111;28;20239;-74
2022/02/21 17:43:53;;;;;;;6.13;2.10;;;;;;;;;;6283705;28;20249;-75
2022/02/21 17:47:14;;;;;;;7.53;2.60;;;;;;;;;;6293084;28;20231;-74
2022/02/21 17:50:37;;;;;;;9.47;4.40;;;;;;;;;;6298149;27;20226;-74
2022/02/21 17:53:59;;;;;;;8.83;3.50;;;;;;;;;;6294140;27;20231;-74
2022/02/21 17:57:21;;;;;;;7.17;3.37;;;;;;;;;;6291790;28;20239;-74
2022/02/21 18:00:42;;;;;;;5.00;2.70;;;;;;;;;;6295355;28;20605;-74
2022/02/21 18:04:02;;;;;;;8.60;3.80;;;;;;;;;;6296035;27;20541;-74
2022/02/21 18:07:22;;;;;;;7.20;2.50;;;;;;;;;;6301321;27;20243;-74
2022/02/21 18:10:45;;;;;;;10.13;2.90;;;;;;;;;;6294150;28;20596;-73
2022/02/21 18:14:06;;;;;;;9.83;3.47;;;;;;;;;;6290174;27;20214;-74
2022/02/21 18:17:28;;;;;;;8.57;2.87;;;;;;;;;;6290702;27;20522;-74
2022/02/21 18:20:48;;;;;;;11.37;4.57;;;;;;;;;;6297575;27;20223;-74
2022/02/21 18:24:09;;;;;;;8.33;2.83;;;;;;;;;;6292974;28;20782;-74
2022/02/21 18:27:31;;;;;;;15.50;3.77;;;;;;;;;;6291261;28;20227;-73
2022/02/21 18:30:52;;;;;;;10.30;3.73;;;;;;;;;;6288298;28;20227;-73
2022/02/21 18:34:12;;;;;;;11.40;2.70;;;;;;;;;;6289850;28;20526;-69
2022/02/21 18:37:33;;;;;;;12.80;2.97;;;;;;;;;;6288070;28;20231;-72
2022/02/21 18:40:53;;;;;;;8.10;3.17;;;;;;;;;;6286555;28;20889;-73
2022/02/21 18:44:15;;;;;;;8.90;4.87;;;;;;;;;;6285159;28;20852;-72
2022/02/21 18:47:36;;;;;;;14.23;5.43;;;;;;;;;;6280629;27;20239;-73
2022/02/21 18:51:00;;;;;;;13.20;4.63;;;;;;;;;;6291365;27;20235;-68
2022/02/21 18:54:21;;;;;;;19.30;4.37;;;;;;;;;;6283057;28;20231;-70
2022/02/21 18:57:41;;;;;;;12.33;4.10;;;;;;;;;;6538833;23;20220;-71
2022/02/21 19:01:03;;;;;;;9.97;4.07;;;;;;;;;;6499544;22;20537;-72
2022/02/21 19:04:24;;;;;;;12.47;3.50;;;;;;;;;;6224683;28;20469;-71
2022/02/21 19:07:45;;;;;;;8.77;3.13;;;;;;;;;;6214091;28;20261;-72
2022/02/21 19:11:06;;;;;;;9.50;3.83;;;;;;;;;;6204215;28;20225;-72
2022/02/21 19:14:27;;;;;;;18.47;5.10;;;;;;;;;;6202451;28;20225;-72
2022/02/21 19:17:49;;;;;;;14.93;4.70;;;;;;;;;;6213619;28;20496;-71
2022/02/21 19:21:13;;;;;;;10.93;3.77;;;;;;;;;;6204551;28;20229;-71
2022/02/21 19:24:34;;;;;;;13.63;4.23;;;;;;;;;;6203894;28;20345;-72
2022/02/21 19:27:54;;;;;;;16.63;4.00;;;;;;;;;;6205858;28;20261;-72
2022/02/21 19:31:15;;;;;;;15.57;5.47;;;;;;;;;;6208086;28;20240;-71
2022/02/21 19:34:37;;;;;;;18.50;4.97;;;;;;;;;;6198783;28;20320;-71
2022/02/21 19:37:57;;;;;;;14.97;4.67;;;;;;;;;;6192207;28;20331;-71
2022/02/21 19:41:18;;;;;;;11.07;4.57;;;;;;;;;;6204998;28;20229;-71
2022/02/21 19:44:38;;;;;;;23.10;7.87;;;;;;;;;;6190132;28;20292;-71
2022/02/21 19:47:59;;;;;;;16.57;7.80;;;;;;;;;;6201988;28;21074;-68
2022/02/21 19:51:21;;;;;;;16.13;3.70;;;;;;;;;;6192868;28;20308;-72
2022/02/21 19:54:42;;;;;;;16.33;4.37;;;;;;;;;;6187361;28;20481;-72
2022/02/21 19:58:03;;;;;;;21.30;5.77;;;;;;;;;;6184879;28;20273;-71
2022/02/21 20:01:23;;;;;;;18.23;6.17;;;;;;;;;;6202105;28;20637;-71